Time;durP1;ratioP1;P1;durP2;ratioP2;P2;SDS_P1;SDS_P2;PMS_P1;PMS_P2;Temp;Humidity;BMP_temperature;BMP_pressure;BME280_temperature;BME280_humidity;BME280_pressure;Samples;Min_cycle;Max_cycle;Signal;HPM_P1;HPM_P2
2022/09/25 00:00:53;;;;;;;8.10;2.08;;;9.30;99.90;;;;;;4955932;28;20055;-80
2022/09/25 00:03:20;;;;;;;4.53;1.27;;;9.10;99.90;;;;;;4955939;28;20047;-78
2022/09/25 00:05:46;;;;;;;4.40;1.60;;;9.10;99.90;;;;;;4955979;29;20070;-83
2022/09/25 00:08:14;;;;;;;7.32;1.45;;;9.10;99.90;;;;;;4956657;29;20058;-79
2022/09/25 00:10:46;;;;;;;3.60;1.65;;;9.70;99.90;;;;;;4955921;28;20053;-78
2022/09/25 00:13:12;;;;;;;4.90;1.50;;;9.00;99.90;;;;;;4955916;28;20046;-79
2022/09/25 00:15:44;;;;;;;5.13;1.70;;;9.00;99.90;;;;;;4955873;28;20059;-78
2022/09/25 00:18:09;;;;;;;5.13;1.70;;;8.90;99.90;;;;;;4955845;28;20039;-79
2022/09/25 00:20:36;;;;;;;4.57;1.40;;;8.90;99.90;;;;;;4955742;28;20103;-82
2022/09/25 00:23:01;;;;;;;;;;;8.90;99.90;;;;;;4956523;28;20047;-81
2022/09/25 00:25:27;;;;;;;4.07;1.67;;;9.10;99.90;;;;;;4955811;29;19957;-78
2022/09/25 00:27:54;;;;;;;5.63;1.70;;;8.80;99.90;;;;;;4956019;28;20049;-78
2022/09/25 00:30:20;;;;;;;3.35;1.30;;;8.80;99.90;;;;;;4954653;28;20047;-79
2022/09/25 00:32:45;;;;;;;6.97;1.80;;;9.20;99.90;;;;;;4955650;29;20049;-80
2022/09/25 00:35:11;;;;;;;8.73;1.58;;;8.70;99.90;;;;;;4955337;29;20403;-81
2022/09/25 00:37:37;;;;;;;5.13;1.70;;;8.70;99.90;;;;;;4955644;28;20051;-79
2022/09/25 00:40:04;;;;;;;12.32;2.88;;;8.70;99.90;;;;;;4955837;28;20419;-79
2022/09/25 00:42:30;;;;;;;2.95;1.33;;;8.60;99.90;;;;;;4955753;28;20054;-77
2022/09/25 00:44:56;;;;;;;4.68;1.65;;;8.60;99.90;;;;;;4955516;28;20098;-80
2022/09/25 00:47:27;;;;;;;7.75;1.67;;;8.60;99.90;;;;;;4955297;29;20055;-79
2022/09/25 00:49:55;;;;;;;5.68;1.80;;;8.70;99.90;;;;;;4954714;28;20047;-76
2022/09/25 00:52:24;;;;;;;3.63;1.50;;;8.60;99.90;;;;;;4958216;29;20136;-79
2022/09/25 00:55:01;;;;;;;6.22;1.52;;;8.50;99.90;;;;;;4958182;29;20407;-81
2022/09/25 00:57:31;;;;;;;6.35;1.90;;;8.50;99.90;;;;;;4959339;28;20047;-78
2022/09/25 01:00:01;;;;;;;4.80;1.67;;;8.40;99.90;;;;;;4959566;28;20051;-81
2022/09/25 01:02:32;;;;;;;5.80;1.85;;;8.50;99.90;;;;;;4959229;28;20040;-77
2022/09/25 01:05:03;;;;;;;5.15;1.60;;;8.80;99.90;;;;;;4959266;28;20047;-82
2022/09/25 01:07:31;;;;;;;5.63;1.80;;;8.40;99.90;;;;;;4959227;28;20062;-82
2022/09/25 01:09:58;;;;;;;3.97;1.65;;;8.40;99.90;;;;;;4959073;28;20126;-78
2022/09/25 01:12:24;;;;;;;4.38;1.58;;;8.40;99.90;;;;;;4958724;28;20558;-82
2022/09/25 01:14:50;;;;;;;4.95;1.45;;;8.90;99.90;;;;;;4959083;28;20500;-81
2022/09/25 01:17:26;;;;;;;5.23;1.47;;;8.40;99.90;;;;;;4959049;28;20055;-79
2022/09/25 01:20:14;;;;;;;7.05;1.60;;;8.40;99.90;;;;;;4959307;28;20093;-80
2022/09/25 01:22:53;;;;;;;4.80;1.92;;;8.30;99.90;;;;;;4958890;28;20043;-80
2022/09/25 01:25:40;;;;;;;8.40;2.03;;;8.30;99.90;;;;;;4959299;28;20479;-77
2022/09/25 01:28:17;;;;;;;2.58;1.50;;;8.20;99.90;;;;;;4958829;28;20047;-80
2022/09/25 01:30:49;;;;;;;5.43;1.50;;;8.20;99.90;;;;;;4957731;29;20126;-80
2022/09/25 01:33:25;;;;;;;4.57;2.00;;;8.70;99.90;;;;;;4958680;28;20480;-81
2022/09/25 01:36:17;;;;;;;5.90;1.90;;;8.20;99.90;;;;;;4958859;29;20491;-80
2022/09/25 01:38:49;;;;;;;5.30;1.55;;;8.20;99.90;;;;;;4958796;29;20142;-80
2022/09/25 01:41:46;;;;;;;6.65;1.98;;;8.10;99.90;;;;;;4958410;29;20054;-83
2022/09/25 01:44:20;;;;;;;6.13;1.80;;;8.20;99.90;;;;;;4958713;28;20047;-79
2022/09/25 01:46:49;;;;;;;3.25;1.40;;;8.10;99.90;;;;;;4957431;29;20404;-79
2022/09/25 01:49:28;;;;;;;4.03;1.70;;;8.00;99.90;;;;;;4958143;28;20487;-82
2022/09/25 01:51:57;;;;;;;6.30;2.00;;;8.00;99.90;;;;;;4957304;29;20089;-80
2022/09/25 01:54:33;;;;;;;6.60;2.15;;;8.00;99.90;;;;;;4958279;28;20122;-80
2022/09/25 01:57:03;;;;;;;4.85;1.98;;;8.00;99.90;;;;;;4958599;29;20133;-79
2022/09/25 01:59:39;;;;;;;3.90;1.63;;;7.90;99.90;;;;;;4958290;29;20047;-81
2022/09/25 02:02:12;;;;;;;2.97;1.52;;;7.80;99.90;;;;;;4957755;28;20051;-77
2022/09/25 02:04:43;;;;;;;3.65;1.52;;;7.80;99.90;;;;;;4958147;28;20106;-82
2022/09/25 02:07:13;;;;;;;4.60;1.67;;;7.80;99.90;;;;;;4958528;29;20133;-79
2022/09/25 02:09:38;;;;;;;5.28;1.65;;;7.80;99.90;;;;;;4956635;29;20055;-79
2022/09/25 02:12:17;;;;;;;3.30;1.63;;;7.80;99.90;;;;;;4957998;29;20047;-83
2022/09/25 02:15:12;;;;;;;6.63;1.73;;;7.70;99.90;;;;;;4958126;28;20047;-79
2022/09/25 02:20:35;;;;;;;2.92;1.83;;;7.70;99.90;;;;;;4957878;28;20051;-82
2022/09/25 02:23:12;;;;;;;3.90;1.58;;;7.70;99.90;;;;;;4958039;28;20047;-81
2022/09/25 02:26:08;;;;;;;3.65;1.65;;;7.60;99.90;;;;;;4957805;29;20415;-82
2022/09/25 02:28:34;;;;;;;4.03;1.70;;;7.60;99.90;;;;;;4957027;28;20095;-81
2022/09/25 02:31:02;;;;;;;;;;;7.60;99.90;;;;;;4958066;28;20046;-82
2022/09/25 02:33:28;;;;;;;3.40;1.67;;;7.60;99.90;;;;;;4957582;29;19978;-80
2022/09/25 02:35:54;;;;;;;3.45;1.40;;;7.50;99.90;;;;;;4957553;28;20063;-83
2022/09/25 02:38:20;;;;;;;7.85;1.50;;;7.50;99.90;;;;;;4957788;28;20043;-82
2022/09/25 02:40:55;;;;;;;3.95;1.75;;;7.50;99.90;;;;;;4958029;28;20043;-79
2022/09/25 02:43:45;;;;;;;5.25;1.70;;;7.40;99.90;;;;;;4957719;28;20047;-82
2022/09/25 02:46:23;;;;;;;8.43;1.67;;;7.30;99.90;;;;;;4957435;29;20043;-80
2022/09/25 02:48:54;;;;;;;8.10;1.98;;;7.30;99.90;;;;;;4956159;29;20051;-79
2022/09/25 02:51:33;;;;;;;4.43;1.58;;;7.30;99.90;;;;;;4957722;28;20054;-81
2022/09/25 02:54:20;;;;;;;5.38;1.70;;;7.30;99.90;;;;;;4957497;28;20129;-82
2022/09/25 02:57:02;;;;;;;7.70;2.17;;;7.30;99.90;;;;;;4957215;28;20388;-79
2022/09/25 02:59:34;;;;;;;4.22;2.45;;;7.30;99.90;;;;;;4957737;29;20047;-79
2022/09/25 03:02:01;;;;;;;5.57;1.55;;;7.20;99.90;;;;;;4957033;28;20086;-80
2022/09/25 03:04:28;;;;;;;4.15;1.63;;;7.20;99.90;;;;;;4956173;29;20054;-81
2022/09/25 03:06:55;;;;;;;7.63;1.80;;;7.20;99.90;;;;;;4956895;28;20042;-81
2022/09/25 03:09:22;;;;;;;6.95;1.92;;;7.30;99.90;;;;;;4956901;28;20051;-82
2022/09/25 03:11:48;;;;;;;5.90;1.58;;;7.20;99.90;;;;;;4956931;28;20086;-82
2022/09/25 03:14:14;;;;;;;7.30;1.75;;;7.10;99.90;;;;;;4956379;28;20081;-79
2022/09/25 03:16:46;;;;;;;6.68;1.73;;;7.10;99.90;;;;;;4956821;28;20051;-78
2022/09/25 03:19:13;;;;;;;3.33;1.50;;;7.10;99.90;;;;;;4956903;29;20051;-78
2022/09/25 03:21:39;;;;;;;7.45;1.58;;;7.10;99.90;;;;;;4956409;28;20483;-81
2022/09/25 03:24:05;;;;;;;4.00;1.60;;;7.00;99.90;;;;;;4956603;28;20054;-77
2022/09/25 03:26:30;;;;;;;7.80;2.65;;;7.30;99.90;;;;;;4956666;28;20479;-82
2022/09/25 03:29:01;;;;;;;4.32;1.42;;;6.90;99.90;;;;;;4956656;29;20098;-80
2022/09/25 03:31:27;;;;;;;4.57;1.80;;;7.00;99.90;;;;;;4956561;28;20476;-82
2022/09/25 03:33:53;;;;;;;5.97;1.73;;;6.90;99.90;;;;;;4956519;28;20067;-81
2022/09/25 03:36:21;;;;;;;5.47;1.73;;;6.80;99.90;;;;;;4956402;28;20047;-79
2022/09/25 03:38:50;;;;;;;4.07;1.70;;;6.80;99.90;;;;;;4956271;28;20066;-80
2022/09/25 03:41:20;;;;;;;4.15;2.03;;;6.80;99.90;;;;;;4956342;28;20118;-78
2022/09/25 03:43:50;;;;;;;3.58;1.75;;;6.80;99.90;;;;;;4956294;28;20063;-82
2022/09/25 03:46:16;;;;;;;3.08;1.45;;;7.30;99.90;;;;;;4956306;28;20055;-80
2022/09/25 03:48:42;;;;;;;4.45;1.73;;;6.80;99.90;;;;;;4956267;28;20055;-81
2022/09/25 03:51:08;;;;;;;2.85;1.85;;;6.80;99.90;;;;;;4956210;28;20043;-79
2022/09/25 03:53:34;;;;;;;8.30;1.77;;;6.80;99.90;;;;;;4956269;28;20449;-79
2022/09/25 03:56:02;;;;;;;2.83;1.73;;;6.80;99.90;;;;;;4956507;28;20102;-78
2022/09/25 03:58:28;;;;;;;2.55;1.60;;;6.80;99.90;;;;;;4954987;29;20059;-82
2022/09/25 04:00:56;;;;;;;3.50;1.95;;;6.80;99.90;;;;;;4956270;28;20043;-83
2022/09/25 04:03:29;;;;;;;5.20;1.80;;;6.70;99.90;;;;;;4956031;28;20050;-82
2022/09/25 04:05:56;;;;;;;6.72;1.90;;;6.70;99.90;;;;;;4956032;28;20082;-80
2022/09/25 04:08:25;;;;;;;6.93;2.15;;;6.70;99.90;;;;;;4956750;28;20043;-79
2022/09/25 04:10:51;;;;;;;8.48;1.98;;;6.70;99.90;;;;;;4955887;28;20047;-79
2022/09/25 04:13:18;;;;;;;6.22;2.22;;;6.70;99.90;;;;;;4955933;28;20047;-83
2022/09/25 04:15:44;;;;;;;6.55;2.00;;;6.70;99.90;;;;;;4955823;28;20501;-79
2022/09/25 04:18:09;;;;;;;5.50;1.88;;;6.70;99.90;;;;;;4955938;28;20130;-76
2022/09/25 04:20:37;;;;;;;5.68;1.75;;;6.70;99.90;;;;;;4955703;28;20130;-83
2022/09/25 04:23:03;;;;;;;4.93;1.65;;;6.60;99.90;;;;;;4955952;28;20051;-79
2022/09/25 04:25:29;;;;;;;2.90;1.50;;;6.60;99.90;;;;;;4955651;28;20180;-76
2022/09/25 04:27:55;;;;;;;3.83;1.70;;;6.60;99.90;;;;;;4954548;29;20081;-83
2022/09/25 04:30:26;;;;;;;5.32;1.95;;;6.60;99.90;;;;;;4955706;28;20051;-80
2022/09/25 04:35:36;;;;;;;3.83;1.80;;;6.60;99.90;;;;;;4955643;28;20055;-81
2022/09/25 04:38:03;;;;;;;5.45;2.88;;;6.60;99.90;;;;;;4955270;29;20055;-81
2022/09/25 04:40:29;;;;;;;4.28;1.83;;;6.60;99.90;;;;;;4955511;29;20055;-84
2022/09/25 04:42:56;;;;;;;4.33;2.13;;;6.60;99.90;;;;;;4955562;28;20043;-82
2022/09/25 04:45:22;;;;;;;3.38;1.85;;;6.60;99.90;;;;;;4955503;28;20094;-80
2022/09/25 04:47:48;;;;;;;9.30;2.67;;;6.70;99.90;;;;;;4955480;29;20051;-81
2022/09/25 04:50:13;;;;;;;3.10;2.13;;;7.00;99.90;;;;;;4955607;28;20051;-79
2022/09/25 04:52:39;;;;;;;3.30;1.95;;;6.60;99.90;;;;;;4955461;28;20043;-80
2022/09/25 04:55:05;;;;;;;3.75;2.13;;;6.60;99.90;;;;;;4955515;28;20054;-82
2022/09/25 04:57:32;;;;;;;4.18;1.95;;;6.60;99.90;;;;;;4954322;29;20103;-78
2022/09/25 04:59:58;;;;;;;3.70;2.13;;;6.60;99.90;;;;;;4955459;28;20395;-81
2022/09/25 05:02:27;;;;;;;7.10;2.72;;;6.50;99.90;;;;;;4954998;29;20039;-79
2022/09/25 05:04:53;;;;;;;4.88;2.03;;;6.50;99.90;;;;;;4955387;28;20047;-80
2022/09/25 05:07:18;;;;;;;6.13;2.03;;;6.50;99.90;;;;;;4955598;28;20054;-81
2022/09/25 05:09:44;;;;;;;3.40;1.85;;;6.50;99.90;;;;;;4955355;29;20083;-78
2022/09/25 05:12:09;;;;;;;3.92;1.95;;;6.50;99.90;;;;;;4955306;28;20043;-82
2022/09/25 05:14:35;;;;;;;4.30;1.95;;;6.50;99.90;;;;;;4955298;29;20506;-80
2022/09/25 05:17:01;;;;;;;6.22;1.60;;;6.50;99.90;;;;;;4955236;29;20102;-79
2022/09/25 05:19:27;;;;;;;5.47;2.08;;;6.40;99.90;;;;;;4955183;28;20047;-79
2022/09/25 05:21:53;;;;;;;6.25;2.38;;;6.40;99.90;;;;;;4955097;29;20047;-78
2022/09/25 05:24:18;;;;;;;7.85;2.55;;;6.40;99.90;;;;;;4954203;28;20055;-80
2022/09/25 05:26:44;;;;;;;5.15;1.95;;;6.40;99.90;;;;;;4955018;28;20047;-78
2022/09/25 05:29:10;;;;;;;4.25;1.80;;;6.40;99.90;;;;;;4955236;28;20546;-81
2022/09/25 05:31:37;;;;;;;2.70;1.52;;;6.40;99.90;;;;;;4955047;28;20074;-80
2022/09/25 05:34:02;;;;;;;;;;;6.60;99.90;;;;;;4955543;28;20051;-82
2022/09/25 05:36:28;;;;;;;7.60;2.33;;;6.30;99.90;;;;;;4955109;28;20020;-82
2022/09/25 05:38:54;;;;;;;3.95;1.85;;;6.30;99.90;;;;;;4958332;28;20125;-82
2022/09/25 05:41:20;;;;;;;3.05;1.60;;;6.30;99.90;;;;;;4958526;29;20050;-79
2022/09/25 05:43:46;;;;;;;5.57;2.47;;;6.30;99.90;;;;;;4958563;28;20043;-81
2022/09/25 05:46:13;;;;;;;7.70;1.92;;;6.20;99.90;;;;;;4958444;28;20047;-81
2022/09/25 05:48:39;;;;;;;5.13;1.98;;;7.00;99.90;;;;;;4958517;28;20043;-78
2022/09/25 05:51:05;;;;;;;4.45;2.05;;;6.30;99.90;;;;;;4958743;28;20486;-79
2022/09/25 05:53:31;;;;;;;6.45;2.22;;;6.10;99.90;;;;;;4958410;29;20062;-81
2022/09/25 05:55:58;;;;;;;7.07;2.33;;;6.20;99.90;;;;;;4958367;28;20051;-78
2022/09/25 05:58:29;;;;;;;4.30;2.10;;;6.20;99.90;;;;;;4958276;28;20054;-79
2022/09/25 06:00:54;;;;;;;3.65;2.17;;;6.20;99.90;;;;;;4958192;28;20040;-80
2022/09/25 06:03:20;;;;;;;6.25;2.40;;;6.30;99.90;;;;;;4958244;28;20058;-82
2022/09/25 06:05:47;;;;;;;4.38;2.33;;;6.30;99.90;;;;;;4958522;28;20423;-80
2022/09/25 06:08:13;;;;;;;6.80;2.60;;;6.30;99.90;;;;;;4958117;28;20043;-81
2022/09/25 06:10:40;;;;;;;3.30;2.00;;;6.30;99.90;;;;;;4956919;29;20058;-77
2022/09/25 06:13:06;;;;;;;7.45;2.00;;;6.40;99.90;;;;;;4958086;28;20052;-77
2022/09/25 06:15:37;;;;;;;8.20;3.38;;;6.30;99.90;;;;;;4957942;29;20567;-82
2022/09/25 06:18:04;;;;;;;9.55;7.22;;;6.30;99.90;;;;;;4957942;28;20091;-79
2022/09/25 06:20:30;;;;;;;10.93;3.45;;;6.40;99.90;;;;;;4957870;28;20130;-81
2022/09/25 06:22:57;;;;;;;7.60;3.83;;;6.40;99.90;;;;;;4957873;28;20057;-79
2022/09/25 06:25:25;;;;;;;10.07;5.40;;;6.40;99.90;;;;;;4957558;28;20069;-79
2022/09/25 06:27:55;;;;;;;11.48;6.50;;;6.50;99.90;;;;;;4957640;28;20058;-80
2022/09/25 06:30:22;;;;;;;8.60;3.75;;;6.50;99.90;;;;;;4957767;28;20047;-80
2022/09/25 06:32:49;;;;;;;;;;;6.60;99.90;;;;;;4958490;28;20043;-80
2022/09/25 06:35:15;;;;;;;6.20;4.35;;;6.70;99.90;;;;;;4957954;28;19970;-81
2022/09/25 06:37:41;;;;;;;6.40;3.15;;;6.80;99.90;;;;;;4957606;28;20051;-79
2022/09/25 06:40:07;;;;;;;8.25;3.65;;;7.00;99.90;;;;;;4957739;29;20062;-80
2022/09/25 06:42:34;;;;;;;5.45;2.60;;;7.10;99.90;;;;;;4957234;28;20043;-78
2022/09/25 06:45:00;;;;;;;9.93;2.75;;;7.20;99.90;;;;;;4940491;29;20131;-80
2022/09/25 06:47:25;;;;;;;5.35;3.35;;;7.40;99.90;;;;;;4956987;29;20403;-80
2022/09/25 06:49:51;;;;;;;6.25;2.35;;;7.50;99.90;;;;;;4956172;28;20054;-80
2022/09/25 06:52:17;;;;;;;5.28;2.45;;;7.60;99.90;;;;;;4957359;29;20039;-81
2022/09/25 06:54:42;;;;;;;7.35;3.55;;;7.70;99.90;;;;;;4957220;29;20043;-82
2022/09/25 06:57:08;;;;;;;6.38;2.92;;;7.80;99.90;;;;;;4957216;28;20057;-82
2022/09/25 06:59:34;;;;;;;8.38;2.45;;;7.90;99.90;;;;;;4957210;28;20043;-82
2022/09/25 07:03:43;;;;;;;8.15;2.92;;;8.00;99.90;;;;;;4957489;28;20357;-80
2022/09/25 07:04:50;;;;;;;7.63;2.90;;;8.10;99.90;;;;;;4957037;28;20051;-79
2022/09/25 07:07:18;;;;;;;5.70;2.78;;;8.30;99.90;;;;;;4957036;28;20043;-79
2022/09/25 07:09:44;;;;;;;9.25;3.15;;;8.40;99.90;;;;;;4957034;28;20396;-79
2022/09/25 07:12:10;;;;;;;7.03;2.67;;;8.50;99.90;;;;;;4956977;28;20043;-78
2022/09/25 07:14:37;;;;;;;10.83;4.10;;;8.60;99.90;;;;;;4956911;28;20054;-79
2022/09/25 07:17:03;;;;;;;5.97;2.80;;;8.80;99.90;;;;;;4956864;28;20051;-81
2022/09/25 07:19:28;;;;;;;6.55;2.63;;;8.90;99.90;;;;;;4955869;29;20374;-80
2022/09/25 07:21:54;;;;;;;4.35;2.22;;;9.00;99.90;;;;;;4955696;29;20043;-81
2022/09/25 07:24:20;;;;;;;16.67;7.13;;;9.10;99.90;;;;;;4956754;28;20074;-81
2022/09/25 07:26:46;;;;;;;7.63;3.83;;;9.30;99.90;;;;;;4956689;28;20134;-80
2022/09/25 07:29:12;;;;;;;5.10;2.67;;;9.40;99.90;;;;;;4956620;29;20098;-80
2022/09/25 07:31:37;;;;;;;8.07;2.65;;;9.60;99.90;;;;;;4956698;28;20054;-80
2022/09/25 07:34:07;;;;;;;8.93;2.47;;;9.60;99.90;;;;;;4955186;29;20059;-80
2022/09/25 07:36:37;;;;;;;8.85;2.45;;;9.80;99.90;;;;;;4956754;28;20074;-78
2022/09/25 07:39:03;;;;;;;13.43;1.80;;;10.00;99.90;;;;;;4956134;28;20059;-81
2022/09/25 07:41:29;;;;;;;2.67;1.80;;;10.10;99.90;;;;;;4956377;28;20058;-79
2022/09/25 07:43:56;;;;;;;7.88;2.15;;;10.70;99.90;;;;;;4956378;28;20043;-81
2022/09/25 07:46:22;;;;;;;5.97;2.00;;;10.40;99.90;;;;;;4956343;28;20046;-80
2022/09/25 07:48:49;;;;;;;6.18;2.17;;;10.50;99.90;;;;;;4956492;28;20081;-81
2022/09/25 07:51:15;;;;;;;7.13;2.05;;;10.60;99.90;;;;;;4956202;28;20082;-81
2022/09/25 07:53:41;;;;;;;6.55;1.95;;;10.70;99.90;;;;;;4956244;28;20055;-78
2022/09/25 07:56:08;;;;;;;5.90;2.03;;;10.90;99.90;;;;;;4956172;28;20047;-82
2022/09/25 07:58:34;;;;;;;6.18;2.00;;;11.10;99.90;;;;;;4956150;28;20055;-79
2022/09/25 08:01:01;;;;;;;5.88;1.83;;;11.20;99.90;;;;;;4955360;28;20491;-80
2022/09/25 08:03:27;;;;;;;;;;;11.30;99.90;;;;;;4956487;28;20139;-82
2022/09/25 08:05:58;;;;;;;6.60;1.90;;;11.40;99.90;;;;;;4956043;28;19923;-81
2022/09/25 08:08:25;;;;;;;5.93;1.60;;;11.50;99.90;;;;;;4955932;28;20044;-83
2022/09/25 08:10:50;;;;;;;5.97;1.80;;;11.60;99.90;;;;;;4956377;28;20416;-80
2022/09/25 08:13:19;;;;;;;7.28;1.60;;;11.70;99.90;;;;;;4955983;29;20167;-82
2022/09/25 08:15:45;;;;;;;6.10;1.67;;;11.90;99.90;;;;;;4955929;28;20498;-81
2022/09/25 08:18:11;;;;;;;4.70;1.92;;;12.00;99.90;;;;;;4956043;29;20083;-79
2022/09/25 08:20:39;;;;;;;7.07;1.67;;;12.10;99.90;;;;;;4955824;28;20130;-80
2022/09/25 08:23:05;;;;;;;8.60;1.85;;;12.20;99.90;;;;;;4954535;28;20420;-81
2022/09/25 08:25:30;;;;;;;7.30;1.52;;;12.30;99.90;;;;;;4955731;28;20054;-80
2022/09/25 08:27:56;;;;;;;3.28;1.38;;;12.50;99.90;;;;;;4956051;28;20039;-82
2022/09/25 08:30:21;;;;;;;2.80;1.10;;;12.60;99.90;;;;;;4955715;28;20047;-77
2022/09/25 08:32:47;;;;;;;8.63;1.65;;;12.60;99.90;;;;;;4955735;28;20039;-82
2022/09/25 08:35:14;;;;;;;4.20;1.52;;;13.10;99.90;;;;;;4955622;28;20043;-79
2022/09/25 08:37:41;;;;;;;5.10;1.48;;;12.90;99.90;;;;;;4955560;28;20051;-81
2022/09/25 08:40:16;;;;;;;6.25;1.38;;;13.00;99.90;;;;;;4955721;28;20091;-81
2022/09/25 08:42:44;;;;;;;4.50;1.35;;;13.20;99.90;;;;;;4955885;28;20044;-81
2022/09/25 08:51:04;;;;;;;4.95;1.17;;;13.30;99.90;;;;;;4955609;28;20051;-80
2022/09/25 08:53:32;;;;;;;6.95;1.40;;;13.30;99.90;;;;;;4955462;28;20043;-82
2022/09/25 08:56:14;;;;;;;7.30;1.55;;;13.50;99.90;;;;;;4955396;28;20097;-81
2022/09/25 08:58:54;;;;;;;7.25;1.20;;;13.60;99.90;;;;;;4955865;28;20399;-81
2022/09/25 09:01:24;;;;;;;4.82;1.42;;;13.60;99.90;;;;;;4955440;28;20495;-79
2022/09/25 09:04:04;;;;;;;4.35;1.27;;;13.80;99.90;;;;;;4955378;28;20082;-80
2022/09/25 09:06:31;;;;;;;5.13;1.58;;;14.00;99.90;;;;;;4955405;28;20047;-81
2022/09/25 09:09:25;;;;;;;7.82;1.50;;;14.30;99.90;;;;;;4955259;28;20049;-81
2022/09/25 09:12:12;;;;;;;6.85;1.27;;;14.00;99.90;;;;;;4955645;28;20083;-82
2022/09/25 09:14:46;;;;;;;5.80;1.33;;;14.10;99.90;;;;;;4959147;28;20047;-82
2022/09/25 09:17:28;;;;;;;7.80;1.55;;;14.20;99.90;;;;;;4958990;28;20051;-80
2022/09/25 09:20:01;;;;;;;6.13;1.50;;;14.50;99.90;;;;;;4959193;28;20055;-81
2022/09/25 09:22:45;;;;;;;5.50;1.33;;;14.40;99.90;;;;;;4959274;28;20043;-81
2022/09/25 09:25:27;;;;;;;4.53;1.63;;;14.50;99.90;;;;;;4958985;28;20483;-81
2022/09/25 09:28:23;;;;;;;5.65;1.73;;;14.60;99.90;;;;;;4958732;28;20051;-82
2022/09/25 09:31:03;;;;;;;4.45;1.27;;;14.70;99.90;;;;;;4959090;28;20110;-79
2022/09/25 09:33:34;;;;;;;5.43;1.30;;;14.80;99.90;;;;;;4958793;29;20098;-79
2022/09/25 09:36:17;;;;;;;5.63;1.40;;;14.90;99.90;;;;;;4958706;29;20130;-81
2022/09/25 09:39:21;;;;;;;4.35;1.45;;;15.00;99.90;;;;;;4958921;29;20134;-79
2022/09/25 09:42:09;;;;;;;5.22;1.35;;;15.10;99.90;;;;;;4957518;29;20480;-80
2022/09/25 09:44:51;;;;;;;5.50;1.38;;;15.10;99.90;;;;;;4958392;29;20043;-80
2022/09/25 09:47:21;;;;;;;4.45;1.20;;;15.30;99.90;;;;;;4958545;28;20039;-79
2022/09/25 09:50:02;;;;;;;3.90;1.08;;;15.50;99.90;;;;;;4957245;29;20497;-82
2022/09/25 09:52:34;;;;;;;4.85;1.40;;;15.70;99.90;;;;;;4958418;28;20049;-78
2022/09/25 09:55:43;;;;;;;6.20;1.48;;;15.80;99.90;;;;;;4958444;28;20039;-80
2022/09/25 09:58:14;;;;;;;;;;;15.90;99.90;;;;;;4956312;29;20094;-82
2022/09/25 10:00:40;;;;;;;5.10;1.17;;;15.90;99.90;;;;;;4956094;29;19923;-81
2022/09/25 10:03:23;;;;;;;4.60;1.15;;;15.80;99.90;;;;;;4957275;28;20376;-80
2022/09/25 10:05:53;;;;;;;4.85;1.33;;;15.60;99.90;;;;;;4957872;28;20411;-78
2022/09/25 10:08:19;;;;;;;3.95;1.08;;;15.60;99.90;;;;;;4958208;28;20063;-81
2022/09/25 10:10:49;;;;;;;6.87;1.43;;;15.60;99.90;;;;;;4958281;29;20047;-80
2022/09/25 10:13:25;;;;;;;3.15;0.90;;;15.60;99.90;;;;;;4958078;28;20083;-79
2022/09/25 10:16:02;;;;;;;3.88;1.10;;;15.70;99.90;;;;;;4957970;28;20047;-82
2022/09/25 10:18:40;;;;;;;5.60;1.05;;;15.90;99.90;;;;;;4957935;28;20047;-81
2022/09/25 10:21:13;;;;;;;12.98;1.80;;;16.20;99.90;;;;;;4957778;28;20518;-81
2022/09/25 10:23:45;;;;;;;4.70;1.08;;;16.10;99.90;;;;;;4956402;28;20199;-79
2022/09/25 10:26:36;;;;;;;4.63;1.05;;;16.10;99.90;;;;;;4957715;29;20095;-80
2022/09/25 10:29:26;;;;;;;4.53;1.35;;;16.10;99.90;;;;;;4958084;29;20051;-80
2022/09/25 10:32:04;;;;;;;5.68;1.38;;;16.10;99.90;;;;;;4957011;29;20399;-79
2022/09/25 10:34:30;;;;;;;4.13;1.33;;;16.10;99.90;;;;;;4957599;28;20051;-79
2022/09/25 10:36:56;;;;;;;3.83;1.27;;;16.10;99.90;;;;;;4957617;28;20399;-80
2022/09/25 10:39:31;;;;;;;5.03;1.03;;;16.00;99.90;;;;;;4957694;28;20066;-83
2022/09/25 10:42:01;;;;;;;5.15;1.20;;;16.20;99.90;;;;;;4957757;28;20306;-80
2022/09/25 10:44:33;;;;;;;5.32;0.98;;;16.20;99.90;;;;;;4957410;28;20047;-80
2022/09/25 10:50:20;;;;;;;2.90;0.93;;;16.10;99.90;;;;;;4957815;28;20051;-81
2022/09/25 10:52:52;;;;;;;3.85;0.95;;;15.90;99.90;;;;;;4957590;28;20047;-82
2022/09/25 10:55:29;;;;;;;3.83;0.82;;;15.70;99.90;;;;;;4957165;28;20480;-81
2022/09/25 10:58:10;;;;;;;1.33;0.60;;;15.60;99.90;;;;;;4957811;28;20403;-83
2022/09/25 11:00:51;;;;;;;1.05;0.60;;;15.50;99.90;;;;;;4957083;29;20051;-80
2022/09/25 11:03:20;;;;;;;2.30;0.60;;;15.30;99.90;;;;;;4957369;28;20050;-82
2022/09/25 11:05:53;;;;;;;2.10;0.60;;;15.20;99.90;;;;;;4956848;29;20043;-82
2022/09/25 11:08:22;;;;;;;1.35;0.70;;;15.30;99.90;;;;;;4957003;28;20468;-80
2022/09/25 11:10:55;;;;;;;2.72;1.20;;;15.30;99.90;;;;;;4956076;29;20102;-80
2022/09/25 11:13:48;;;;;;;3.20;1.45;;;15.20;99.90;;;;;;4956959;28;20053;-81
2022/09/25 11:16:14;;;;;;;3.30;1.70;;;15.10;99.90;;;;;;4956912;28;20046;-81
2022/09/25 11:18:44;;;;;;;2.78;0.85;;;15.10;99.90;;;;;;4956753;28;20097;-78
2022/09/25 11:21:48;;;;;;;1.35;0.60;;;15.00;99.90;;;;;;4956723;28;20043;-79
2022/09/25 11:24:25;;;;;;;1.88;0.60;;;14.90;99.90;;;;;;4956513;29;20118;-83
2022/09/25 11:27:13;;;;;;;1.38;0.73;;;14.90;99.90;;;;;;4956715;29;20051;-81
2022/09/25 11:29:53;;;;;;;2.27;0.63;;;14.80;99.90;;;;;;4957096;29;20406;-82
2022/09/25 11:32:24;;;;;;;3.28;0.90;;;14.90;99.90;;;;;;4956742;28;20639;-79
2022/09/25 11:35:05;;;;;;;2.95;0.60;;;14.90;99.90;;;;;;4956075;28;20055;-80
2022/09/25 11:37:48;;;;;;;1.98;0.75;;;14.90;99.90;;;;;;4956491;28;20494;-80
2022/09/25 11:43:39;;;;;;;2.28;0.80;;;14.90;99.90;;;;;;4956437;28;20059;-82
2022/09/25 11:46:39;;;;;;;2.65;0.80;;;15.00;99.90;;;;;;4956878;28;20089;-78
2022/09/25 11:49:17;;;;;;;1.90;0.80;;;15.10;99.90;;;;;;4956551;28;20073;-82
2022/09/25 11:52:21;;;;;;;3.30;0.80;;;15.40;99.90;;;;;;4956354;28;20047;-81
2022/09/25 11:54:59;;;;;;;2.42;0.80;;;15.60;99.90;;;;;;4956300;28;20071;-82
2022/09/25 11:57:35;;;;;;;;;;;15.80;99.90;;;;;;4956628;29;20051;-82
2022/09/25 12:00:16;;;;;;;3.47;1.13;;;15.90;99.90;;;;;;4956299;28;19922;-80
2022/09/25 12:03:13;;;;;;;3.45;1.02;;;16.00;99.90;;;;;;4956024;28;20181;-80
2022/09/25 12:05:58;;;;;;;2.53;1.13;;;16.00;99.90;;;;;;4954834;29;20118;-77
2022/09/25 12:08:59;;;;;;;4.10;1.10;;;16.20;99.90;;;;;;4955986;29;20051;-81
2022/09/25 12:11:27;;;;;;;1.55;0.65;;;16.20;99.90;;;;;;4956362;28;20443;-80
2022/09/25 12:13:56;;;;;;;3.75;0.90;;;16.20;99.90;;;;;;4955977;29;20057;-80
2022/09/25 12:16:37;;;;;;;3.25;0.98;;;16.10;99.90;;;;;;4955849;29;20513;-82
2022/09/25 12:19:09;;;;;;;2.33;0.88;;;16.20;99.90;;;;;;4955951;29;20086;-79
2022/09/25 12:21:55;;;;;;;1.77;0.68;;;16.30;99.90;;;;;;4956319;28;20059;-81
2022/09/25 12:24:48;;;;;;;2.22;0.73;;;16.40;99.90;;;;;;4955703;28;20058;-80
2022/09/25 12:27:30;;;;;;;2.20;0.60;;;16.50;99.90;;;;;;4955833;28;20054;-79
2022/09/25 12:30:18;;;;;;;1.30;0.65;;;16.60;99.90;;;;;;4955774;28;20407;-78
2022/09/25 12:32:55;;;;;;;2.38;0.80;;;16.70;99.90;;;;;;4955874;28;20546;-78
2022/09/25 12:35:39;;;;;;;2.50;0.75;;;16.80;99.90;;;;;;4954862;29;20052;-80
2022/09/25 12:38:13;;;;;;;2.17;0.75;;;16.90;99.90;;;;;;4955455;28;20054;-82
2022/09/25 12:41:17;;;;;;;2.17;0.65;;;17.00;99.90;;;;;;4955566;29;20043;-79
2022/09/25 12:44:03;;;;;;;3.42;0.80;;;16.90;99.90;;;;;;4954793;29;20082;-82
2022/09/25 12:47:10;;;;;;;1.95;0.73;;;17.10;99.90;;;;;;4956944;28;20093;-82
2022/09/25 12:49:38;;;;;;;2.70;0.80;;;17.10;99.90;;;;;;4958978;28;20066;-79
2022/09/25 12:52:16;;;;;;;2.83;0.68;;;17.10;99.90;;;;;;4959306;29;20043;-78
2022/09/25 12:54:46;;;;;;;2.95;0.88;;;16.90;99.90;;;;;;4959426;28;20047;-80
2022/09/25 12:57:33;;;;;;;4.68;0.75;;;16.70;99.90;;;;;;4959415;28;20055;-81
2022/09/25 13:00:04;;;;;;;3.05;0.60;;;16.60;99.90;;;;;;4959682;29;20051;-82
2022/09/25 13:02:59;;;;;;;2.72;0.88;;;16.30;99.90;;;;;;4959457;28;20039;-81
2022/09/25 13:05:33;;;;;;;2.92;0.77;;;16.20;99.90;;;;;;4959305;28;20081;-80
2022/09/25 13:08:19;;;;;;;2.60;0.73;;;16.10;99.90;;;;;;4959696;28;20134;-80
2022/09/25 13:11:00;;;;;;;3.15;0.85;;;15.90;99.90;;;;;;4959261;28;20051;-80
2022/09/25 13:13:34;;;;;;;3.08;0.70;;;16.00;99.90;;;;;;4959163;29;20424;-78
2022/09/25 13:16:01;;;;;;;3.35;0.80;;;15.90;99.90;;;;;;4959151;28;20047;-81
2022/09/25 13:18:29;;;;;;;3.08;0.90;;;16.10;99.90;;;;;;4959136;28;20407;-85
2022/09/25 13:20:56;;;;;;;2.53;1.00;;;16.10;99.90;;;;;;4958950;28;20090;-81
2022/09/25 13:23:31;;;;;;;2.47;0.90;;;16.20;99.90;;;;;;4959207;28;20055;-80
2022/09/25 13:26:15;;;;;;;2.95;0.80;;;16.30;99.90;;;;;;4958871;28;20058;-80
2022/09/25 13:28:56;;;;;;;2.55;0.90;;;16.30;99.90;;;;;;4958759;29;20054;-80
2022/09/25 13:31:26;;;;;;;2.50;0.77;;;16.30;99.90;;;;;;4958871;28;20051;-81
2022/09/25 13:34:00;;;;;;;3.60;1.00;;;16.40;99.90;;;;;;4959047;28;20138;-82
2022/09/25 13:36:45;;;;;;;3.75;0.90;;;16.30;99.90;;;;;;4958696;29;20051;-80
2022/09/25 13:42:14;;;;;;;3.67;2.13;;;16.30;99.90;;;;;;4958584;28;20455;-79